sensor_id;sensor_type;location;lat;lon;timestamp;P1;durP1;ratioP1;P2;durP2;ratioP2
12493;SDS011;8260;51.422;6.786;2022-10-26T00:01:42;9.40;;;3.28;;
12493;SDS011;8260;51.422;6.786;2022-10-26T00:04:12;6.10;;;3.67;;
12493;SDS011;8260;51.422;6.786;2022-10-26T00:06:41;5.20;;;3.45;;
12493;SDS011;8260;51.422;6.786;2022-10-26T00:09:09;6.60;;;3.55;;
12493;SDS011;8260;51.422;6.786;2022-10-26T00:11:38;6.15;;;3.33;;
12493;SDS011;8260;51.422;6.786;2022-10-26T00:14:07;9.52;;;3.80;;
12493;SDS011;8260;51.422;6.786;2022-10-26T00:16:35;5.60;;;3.28;;
12493;SDS011;8260;51.422;6.786;2022-10-26T00:19:04;5.35;;;3.47;;
12493;SDS011;8260;51.422;6.786;2022-10-26T00:21:34;4.15;;;3.13;;
12493;SDS011;8260;51.422;6.786;2022-10-26T00:24:02;5.65;;;3.10;;
12493;SDS011;8260;51.422;6.786;2022-10-26T00:26:31;4.63;;;2.95;;
12493;SDS011;8260;51.422;6.786;2022-10-26T00:29:00;9.73;;;3.80;;
12493;SDS011;8260;51.422;6.786;2022-10-26T00:31:28;5.00;;;3.63;;
12493;SDS011;8260;51.422;6.786;2022-10-26T00:33:56;7.10;;;3.40;;
12493;SDS011;8260;51.422;6.786;2022-10-26T00:36:25;3.67;;;2.90;;
12493;SDS011;8260;51.422;6.786;2022-10-26T00:38:55;7.10;;;3.10;;
12493;SDS011;8260;51.422;6.786;2022-10-26T00:41:24;10.57;;;2.88;;
12493;SDS011;8260;51.422;6.786;2022-10-26T00:43:53;5.45;;;3.03;;
12493;SDS011;8260;51.422;6.786;2022-10-26T00:46:23;5.18;;;2.58;;
12493;SDS011;8260;51.422;6.786;2022-10-26T00:48:53;5.72;;;2.60;;
12493;SDS011;8260;51.422;6.786;2022-10-26T00:51:24;3.63;;;2.47;;
12493;SDS011;8260;51.422;6.786;2022-10-26T00:53:56;5.10;;;2.67;;
12493;SDS011;8260;51.422;6.786;2022-10-26T00:56:26;4.47;;;2.50;;
12493;SDS011;8260;51.422;6.786;2022-10-26T00:58:55;4.68;;;2.63;;
12493;SDS011;8260;51.422;6.786;2022-10-26T01:01:26;6.05;;;3.08;;
12493;SDS011;8260;51.422;6.786;2022-10-26T01:03:56;4.95;;;2.83;;
12493;SDS011;8260;51.422;6.786;2022-10-26T01:06:24;7.10;;;2.95;;
12493;SDS011;8260;51.422;6.786;2022-10-26T01:08:53;6.10;;;2.55;;
12493;SDS011;8260;51.422;6.786;2022-10-26T01:11:24;4.72;;;2.92;;
12493;SDS011;8260;51.422;6.786;2022-10-26T01:13:52;4.55;;;2.38;;
12493;SDS011;8260;51.422;6.786;2022-10-26T01:19:18;3.85;;;2.30;;
12493;SDS011;8260;51.422;6.786;2022-10-26T01:21:54;3.80;;;2.72;;
12493;SDS011;8260;51.422;6.786;2022-10-26T01:24:32;3.47;;;2.60;;
12493;SDS011;8260;51.422;6.786;2022-10-26T01:32:33;4.53;;;2.45;;
12493;SDS011;8260;51.422;6.786;2022-10-26T01:35:04;4.70;;;2.80;;
12493;SDS011;8260;51.422;6.786;2022-10-26T01:37:35;4.85;;;2.40;;
12493;SDS011;8260;51.422;6.786;2022-10-26T01:40:05;3.58;;;2.20;;
12493;SDS011;8260;51.422;6.786;2022-10-26T01:42:36;6.50;;;2.35;;
12493;SDS011;8260;51.422;6.786;2022-10-26T01:45:09;4.50;;;2.50;;
12493;SDS011;8260;51.422;6.786;2022-10-26T01:47:41;5.45;;;2.55;;
12493;SDS011;8260;51.422;6.786;2022-10-26T01:50:12;3.40;;;2.13;;
12493;SDS011;8260;51.422;6.786;2022-10-26T01:52:40;3.40;;;2.80;;
12493;SDS011;8260;51.422;6.786;2022-10-26T01:57:52;4.38;;;2.22;;
12493;SDS011;8260;51.422;6.786;2022-10-26T02:00:21;3.70;;;2.10;;
12493;SDS011;8260;51.422;6.786;2022-10-26T02:03:01;5.72;;;2.35;;
12493;SDS011;8260;51.422;6.786;2022-10-26T02:05:35;5.85;;;2.45;;
12493;SDS011;8260;51.422;6.786;2022-10-26T02:08:11;7.15;;;2.45;;
12493;SDS011;8260;51.422;6.786;2022-10-26T02:10:45;3.17;;;2.28;;
12493;SDS011;8260;51.422;6.786;2022-10-26T02:13:15;4.85;;;2.20;;
12493;SDS011;8260;51.422;6.786;2022-10-26T02:15:47;6.63;;;2.35;;
12493;SDS011;8260;51.422;6.786;2022-10-26T02:18:19;2.33;;;2.13;;
12493;SDS011;8260;51.422;6.786;2022-10-26T02:20:52;3.08;;;2.03;;
12493;SDS011;8260;51.422;6.786;2022-10-26T02:23:22;4.47;;;2.33;;
12493;SDS011;8260;51.422;6.786;2022-10-26T02:25:54;5.25;;;2.42;;
12493;SDS011;8260;51.422;6.786;2022-10-26T02:28:24;4.78;;;2.40;;
12493;SDS011;8260;51.422;6.786;2022-10-26T02:30:53;5.45;;;2.30;;
12493;SDS011;8260;51.422;6.786;2022-10-26T02:33:24;6.53;;;2.53;;
12493;SDS011;8260;51.422;6.786;2022-10-26T02:35:54;5.82;;;2.35;;
12493;SDS011;8260;51.422;6.786;2022-10-26T02:38:23;4.78;;;2.50;;
12493;SDS011;8260;51.422;6.786;2022-10-26T02:40:53;5.20;;;2.53;;
12493;SDS011;8260;51.422;6.786;2022-10-26T02:43:23;4.63;;;2.20;;
12493;SDS011;8260;51.422;6.786;2022-10-26T02:45:53;5.90;;;2.40;;
12493;SDS011;8260;51.422;6.786;2022-10-26T02:48:25;7.90;;;2.63;;
12493;SDS011;8260;51.422;6.786;2022-10-26T02:50:56;3.28;;;2.33;;
12493;SDS011;8260;51.422;6.786;2022-10-26T02:53:27;3.78;;;2.20;;
12493;SDS011;8260;51.422;6.786;2022-10-26T02:55:56;4.28;;;2.47;;
12493;SDS011;8260;51.422;6.786;2022-10-26T02:58:27;5.28;;;2.15;;
12493;SDS011;8260;51.422;6.786;2022-10-26T03:00:56;4.53;;;2.38;;
12493;SDS011;8260;51.422;6.786;2022-10-26T03:03:26;4.63;;;2.65;;
12493;SDS011;8260;51.422;6.786;2022-10-26T03:05:55;6.88;;;2.60;;
12493;SDS011;8260;51.422;6.786;2022-10-26T03:08:23;5.32;;;2.53;;
12493;SDS011;8260;51.422;6.786;2022-10-26T03:10:57;5.38;;;2.58;;
12493;SDS011;8260;51.422;6.786;2022-10-26T03:13:25;7.60;;;2.88;;
12493;SDS011;8260;51.422;6.786;2022-10-26T03:15:54;5.88;;;2.38;;
12493;SDS011;8260;51.422;6.786;2022-10-26T03:18:23;6.47;;;2.85;;
12493;SDS011;8260;51.422;6.786;2022-10-26T03:20:53;3.70;;;2.60;;
12493;SDS011;8260;51.422;6.786;2022-10-26T03:23:22;5.95;;;2.92;;
12493;SDS011;8260;51.422;6.786;2022-10-26T03:25:50;5.47;;;2.50;;
12493;SDS011;8260;51.422;6.786;2022-10-26T03:28:19;6.35;;;2.67;;
12493;SDS011;8260;51.422;6.786;2022-10-26T03:30:47;4.53;;;2.72;;
12493;SDS011;8260;51.422;6.786;2022-10-26T03:33:16;4.90;;;2.72;;
12493;SDS011;8260;51.422;6.786;2022-10-26T03:35:54;5.65;;;2.58;;
12493;SDS011;8260;51.422;6.786;2022-10-26T03:38:22;5.20;;;2.20;;
12493;SDS011;8260;51.422;6.786;2022-10-26T03:40:51;4.40;;;2.83;;
12493;SDS011;8260;51.422;6.786;2022-10-26T03:43:19;3.75;;;2.63;;
12493;SDS011;8260;51.422;6.786;2022-10-26T03:45:48;4.05;;;2.80;;
12493;SDS011;8260;51.422;6.786;2022-10-26T03:48:17;4.35;;;2.55;;
12493;SDS011;8260;51.422;6.786;2022-10-26T03:50:45;6.70;;;2.60;;
12493;SDS011;8260;51.422;6.786;2022-10-26T03:53:15;3.55;;;2.45;;
12493;SDS011;8260;51.422;6.786;2022-10-26T03:55:44;4.97;;;2.67;;
12493;SDS011;8260;51.422;6.786;2022-10-26T03:58:12;6.47;;;2.55;;
12493;SDS011;8260;51.422;6.786;2022-10-26T04:00:41;4.97;;;3.03;;
12493;SDS011;8260;51.422;6.786;2022-10-26T04:03:09;4.68;;;2.45;;
12493;SDS011;8260;51.422;6.786;2022-10-26T04:05:38;6.82;;;3.17;;
12493;SDS011;8260;51.422;6.786;2022-10-26T04:08:07;4.30;;;2.15;;
12493;SDS011;8260;51.422;6.786;2022-10-26T04:10:37;5.20;;;2.30;;
12493;SDS011;8260;51.422;6.786;2022-10-26T04:13:07;3.80;;;2.25;;
12493;SDS011;8260;51.422;6.786;2022-10-26T04:15:37;4.78;;;2.08;;
12493;SDS011;8260;51.422;6.786;2022-10-26T04:18:05;4.38;;;2.50;;
12493;SDS011;8260;51.422;6.786;2022-10-26T04:20:33;6.53;;;2.40;;
12493;SDS011;8260;51.422;6.786;2022-10-26T04:23:05;5.15;;;2.03;;
12493;SDS011;8260;51.422;6.786;2022-10-26T04:25:33;2.78;;;2.15;;
12493;SDS011;8260;51.422;6.786;2022-10-26T04:28:04;6.65;;;2.13;;
12493;SDS011;8260;51.422;6.786;2022-10-26T04:30:34;5.57;;;2.05;;
12493;SDS011;8260;51.422;6.786;2022-10-26T04:33:03;4.80;;;1.67;;
12493;SDS011;8260;51.422;6.786;2022-10-26T04:35:31;4.32;;;2.10;;
12493;SDS011;8260;51.422;6.786;2022-10-26T04:38:01;2.58;;;1.90;;
12493;SDS011;8260;51.422;6.786;2022-10-26T04:40:30;6.40;;;2.10;;
12493;SDS011;8260;51.422;6.786;2022-10-26T04:43:00;5.20;;;2.45;;
12493;SDS011;8260;51.422;6.786;2022-10-26T04:45:44;5.13;;;2.15;;
12493;SDS011;8260;51.422;6.786;2022-10-26T04:48:13;3.20;;;1.70;;
12493;SDS011;8260;51.422;6.786;2022-10-26T04:50:41;4.38;;;1.80;;
12493;SDS011;8260;51.422;6.786;2022-10-26T04:53:10;5.32;;;2.00;;
12493;SDS011;8260;51.422;6.786;2022-10-26T04:55:46;3.95;;;1.92;;
12493;SDS011;8260;51.422;6.786;2022-10-26T04:58:15;4.00;;;2.10;;
12493;SDS011;8260;51.422;6.786;2022-10-26T05:00:45;4.72;;;2.10;;
12493;SDS011;8260;51.422;6.786;2022-10-26T05:03:14;2.65;;;1.80;;
12493;SDS011;8260;51.422;6.786;2022-10-26T05:05:42;5.47;;;2.10;;
12493;SDS011;8260;51.422;6.786;2022-10-26T05:08:26;4.28;;;2.30;;
12493;SDS011;8260;51.422;6.786;2022-10-26T05:10:55;3.03;;;1.75;;
12493;SDS011;8260;51.422;6.786;2022-10-26T05:13:23;3.70;;;2.05;;
12493;SDS011;8260;51.422;6.786;2022-10-26T05:15:58;5.07;;;2.10;;
12493;SDS011;8260;51.422;6.786;2022-10-26T05:18:32;3.80;;;1.98;;
12493;SDS011;8260;51.422;6.786;2022-10-26T05:21:14;6.03;;;2.35;;
12493;SDS011;8260;51.422;6.786;2022-10-26T05:23:48;5.88;;;2.13;;
12493;SDS011;8260;51.422;6.786;2022-10-26T05:26:17;1.88;;;1.70;;
12493;SDS011;8260;51.422;6.786;2022-10-26T05:28:46;5.00;;;2.08;;
12493;SDS011;8260;51.422;6.786;2022-10-26T05:31:16;3.90;;;1.80;;
12493;SDS011;8260;51.422;6.786;2022-10-26T05:33:58;4.50;;;2.20;;
12493;SDS011;8260;51.422;6.786;2022-10-26T05:36:27;7.65;;;2.10;;
12493;SDS011;8260;51.422;6.786;2022-10-26T05:39:09;3.13;;;1.90;;
12493;SDS011;8260;51.422;6.786;2022-10-26T05:41:38;5.22;;;2.38;;
12493;SDS011;8260;51.422;6.786;2022-10-26T05:44:07;3.53;;;2.60;;
12493;SDS011;8260;51.422;6.786;2022-10-26T05:46:40;2.80;;;1.63;;
12493;SDS011;8260;51.422;6.786;2022-10-26T05:49:43;3.10;;;1.98;;
12493;SDS011;8260;51.422;6.786;2022-10-26T05:52:25;6.03;;;2.03;;
12493;SDS011;8260;51.422;6.786;2022-10-26T05:54:54;4.47;;;2.08;;
12493;SDS011;8260;51.422;6.786;2022-10-26T05:57:22;4.70;;;2.10;;
12493;SDS011;8260;51.422;6.786;2022-10-26T05:59:51;3.55;;;1.95;;
12493;SDS011;8260;51.422;6.786;2022-10-26T06:02:25;4.22;;;2.03;;
12493;SDS011;8260;51.422;6.786;2022-10-26T06:05:01;2.97;;;2.05;;
12493;SDS011;8260;51.422;6.786;2022-10-26T06:07:31;2.95;;;1.83;;
12493;SDS011;8260;51.422;6.786;2022-10-26T06:10:04;3.85;;;1.90;;
12493;SDS011;8260;51.422;6.786;2022-10-26T06:12:33;3.55;;;2.17;;
12493;SDS011;8260;51.422;6.786;2022-10-26T06:15:02;4.63;;;1.73;;
12493;SDS011;8260;51.422;6.786;2022-10-26T06:17:37;3.28;;;1.60;;
12493;SDS011;8260;51.422;6.786;2022-10-26T06:20:15;4.55;;;1.98;;
12493;SDS011;8260;51.422;6.786;2022-10-26T06:22:51;5.03;;;1.88;;
12493;SDS011;8260;51.422;6.786;2022-10-26T06:25:26;6.93;;;2.10;;
12493;SDS011;8260;51.422;6.786;2022-10-26T06:27:57;4.13;;;2.10;;
12493;SDS011;8260;51.422;6.786;2022-10-26T06:30:32;4.28;;;1.90;;
12493;SDS011;8260;51.422;6.786;2022-10-26T06:33:02;4.68;;;2.05;;
12493;SDS011;8260;51.422;6.786;2022-10-26T06:35:53;3.95;;;2.10;;
12493;SDS011;8260;51.422;6.786;2022-10-26T06:38:25;4.13;;;1.90;;
12493;SDS011;8260;51.422;6.786;2022-10-26T06:40:54;3.42;;;2.20;;
12493;SDS011;8260;51.422;6.786;2022-10-26T06:43:25;3.75;;;2.03;;
12493;SDS011;8260;51.422;6.786;2022-10-26T06:46:09;3.92;;;1.85;;
12493;SDS011;8260;51.422;6.786;2022-10-26T06:48:46;4.70;;;1.80;;
12493;SDS011;8260;51.422;6.786;2022-10-26T06:51:16;4.45;;;1.80;;
12493;SDS011;8260;51.422;6.786;2022-10-26T06:53:48;3.38;;;2.10;;
12493;SDS011;8260;51.422;6.786;2022-10-26T06:56:17;4.93;;;2.15;;
12493;SDS011;8260;51.422;6.786;2022-10-26T06:58:46;3.92;;;1.90;;
12493;SDS011;8260;51.422;6.786;2022-10-26T07:01:16;3.33;;;1.85;;
12493;SDS011;8260;51.422;6.786;2022-10-26T07:03:48;3.22;;;1.77;;
12493;SDS011;8260;51.422;6.786;2022-10-26T07:06:17;1.60;;;1.50;;
12493;SDS011;8260;51.422;6.786;2022-10-26T07:08:45;2.80;;;1.75;;
12493;SDS011;8260;51.422;6.786;2022-10-26T07:11:16;2.67;;;1.52;;
12493;SDS011;8260;51.422;6.786;2022-10-26T07:13:44;7.50;;;1.65;;
12493;SDS011;8260;51.422;6.786;2022-10-26T07:16:21;7.40;;;1.80;;
12493;SDS011;8260;51.422;6.786;2022-10-26T07:18:51;1.88;;;1.70;;
12493;SDS011;8260;51.422;6.786;2022-10-26T07:21:19;1.98;;;1.58;;
12493;SDS011;8260;51.422;6.786;2022-10-26T07:23:48;3.30;;;1.92;;
12493;SDS011;8260;51.422;6.786;2022-10-26T07:26:17;4.20;;;1.85;;
12493;SDS011;8260;51.422;6.786;2022-10-26T07:28:47;5.85;;;2.08;;
12493;SDS011;8260;51.422;6.786;2022-10-26T07:31:18;2.90;;;1.80;;
12493;SDS011;8260;51.422;6.786;2022-10-26T07:33:46;2.47;;;1.95;;
12493;SDS011;8260;51.422;6.786;2022-10-26T07:36:16;3.08;;;1.75;;
12493;SDS011;8260;51.422;6.786;2022-10-26T07:38:52;3.55;;;1.77;;
12493;SDS011;8260;51.422;6.786;2022-10-26T07:41:21;2.65;;;1.80;;
12493;SDS011;8260;51.422;6.786;2022-10-26T07:43:50;4.43;;;1.60;;
12493;SDS011;8260;51.422;6.786;2022-10-26T07:46:18;5.03;;;1.73;;
12493;SDS011;8260;51.422;6.786;2022-10-26T07:48:46;7.90;;;1.50;;
12493;SDS011;8260;51.422;6.786;2022-10-26T07:51:16;3.35;;;1.83;;
12493;SDS011;8260;51.422;6.786;2022-10-26T07:53:45;3.97;;;2.00;;
12493;SDS011;8260;51.422;6.786;2022-10-26T07:56:14;7.63;;;1.60;;
12493;SDS011;8260;51.422;6.786;2022-10-26T07:58:42;4.68;;;2.17;;
12493;SDS011;8260;51.422;6.786;2022-10-26T08:01:11;6.35;;;2.20;;
12493;SDS011;8260;51.422;6.786;2022-10-26T08:04:00;6.07;;;2.05;;
12493;SDS011;8260;51.422;6.786;2022-10-26T08:06:33;4.03;;;1.60;;
12493;SDS011;8260;51.422;6.786;2022-10-26T08:09:08;4.53;;;2.10;;
12493;SDS011;8260;51.422;6.786;2022-10-26T08:11:37;1.80;;;1.70;;
12493;SDS011;8260;51.422;6.786;2022-10-26T08:14:06;3.15;;;1.90;;
12493;SDS011;8260;51.422;6.786;2022-10-26T08:16:34;4.07;;;1.80;;
12493;SDS011;8260;51.422;6.786;2022-10-26T08:19:06;2.97;;;1.60;;
12493;SDS011;8260;51.422;6.786;2022-10-26T08:21:36;4.35;;;2.00;;
12493;SDS011;8260;51.422;6.786;2022-10-26T08:24:09;4.50;;;2.03;;
12493;SDS011;8260;51.422;6.786;2022-10-26T08:26:55;8.40;;;1.90;;
12493;SDS011;8260;51.422;6.786;2022-10-26T08:29:41;4.20;;;2.03;;
12493;SDS011;8260;51.422;6.786;2022-10-26T08:32:24;4.88;;;2.03;;
12493;SDS011;8260;51.422;6.786;2022-10-26T08:35:04;3.90;;;1.92;;
12493;SDS011;8260;51.422;6.786;2022-10-26T08:37:34;3.40;;;1.65;;
12493;SDS011;8260;51.422;6.786;2022-10-26T08:40:13;3.30;;;2.05;;
12493;SDS011;8260;51.422;6.786;2022-10-26T08:42:51;3.63;;;1.98;;
12493;SDS011;8260;51.422;6.786;2022-10-26T08:45:23;8.30;;;3.40;;
12493;SDS011;8260;51.422;6.786;2022-10-26T08:48:02;9.77;;;3.10;;
12493;SDS011;8260;51.422;6.786;2022-10-26T08:50:33;7.22;;;2.13;;
12493;SDS011;8260;51.422;6.786;2022-10-26T08:53:14;7.82;;;3.22;;
12493;SDS011;8260;51.422;6.786;2022-10-26T08:55:49;4.90;;;2.00;;
12493;SDS011;8260;51.422;6.786;2022-10-26T08:58:56;4.18;;;1.63;;
12493;SDS011;8260;51.422;6.786;2022-10-26T09:01:50;4.93;;;1.98;;
12493;SDS011;8260;51.422;6.786;2022-10-26T09:04:25;3.83;;;1.98;;
12493;SDS011;8260;51.422;6.786;2022-10-26T09:07:15;11.50;;;2.05;;
12493;SDS011;8260;51.422;6.786;2022-10-26T09:09:55;9.00;;;2.78;;
12493;SDS011;8260;51.422;6.786;2022-10-26T09:12:35;12.88;;;6.82;;
12493;SDS011;8260;51.422;6.786;2022-10-26T09:15:13;6.85;;;1.92;;
12493;SDS011;8260;51.422;6.786;2022-10-26T09:17:55;4.85;;;2.13;;
12493;SDS011;8260;51.422;6.786;2022-10-26T09:21:26;4.82;;;2.08;;
12493;SDS011;8260;51.422;6.786;2022-10-26T09:24:12;3.95;;;1.98;;
12493;SDS011;8260;51.422;6.786;2022-10-26T09:26:53;5.00;;;2.03;;
12493;SDS011;8260;51.422;6.786;2022-10-26T09:29:38;3.10;;;2.00;;
12493;SDS011;8260;51.422;6.786;2022-10-26T09:32:46;5.97;;;2.17;;
12493;SDS011;8260;51.422;6.786;2022-10-26T09:35:22;3.05;;;2.10;;
12493;SDS011;8260;51.422;6.786;2022-10-26T09:37:54;4.28;;;2.70;;
12493;SDS011;8260;51.422;6.786;2022-10-26T09:40:53;3.70;;;2.20;;
12493;SDS011;8260;51.422;6.786;2022-10-26T09:46:45;4.10;;;2.20;;
12493;SDS011;8260;51.422;6.786;2022-10-26T09:49:32;2.65;;;2.03;;
12493;SDS011;8260;51.422;6.786;2022-10-26T09:52:03;5.75;;;2.50;;
12493;SDS011;8260;51.422;6.786;2022-10-26T09:54:31;4.88;;;2.45;;
12493;SDS011;8260;51.422;6.786;2022-10-26T09:57:00;4.13;;;2.30;;
12493;SDS011;8260;51.422;6.786;2022-10-26T09:59:30;3.10;;;2.13;;
12493;SDS011;8260;51.422;6.786;2022-10-26T10:08:35;4.43;;;2.80;;
12493;SDS011;8260;51.422;6.786;2022-10-26T10:11:39;6.30;;;2.30;;
12493;SDS011;8260;51.422;6.786;2022-10-26T10:14:12;4.95;;;2.25;;
12493;SDS011;8260;51.422;6.786;2022-10-26T10:16:49;4.53;;;2.40;;
12493;SDS011;8260;51.422;6.786;2022-10-26T10:19:48;4.95;;;2.28;;
12493;SDS011;8260;51.422;6.786;2022-10-26T10:22:31;5.28;;;2.42;;
12493;SDS011;8260;51.422;6.786;2022-10-26T10:25:33;3.97;;;2.33;;
12493;SDS011;8260;51.422;6.786;2022-10-26T10:28:08;9.68;;;2.90;;
12493;SDS011;8260;51.422;6.786;2022-10-26T10:30:54;3.03;;;2.45;;
12493;SDS011;8260;51.422;6.786;2022-10-26T10:33:31;5.57;;;2.63;;
12493;SDS011;8260;51.422;6.786;2022-10-26T10:36:04;6.35;;;2.60;;
12493;SDS011;8260;51.422;6.786;2022-10-26T10:38:37;4.70;;;2.90;;
12493;SDS011;8260;51.422;6.786;2022-10-26T10:41:23;5.35;;;2.72;;
12493;SDS011;8260;51.422;6.786;2022-10-26T10:44:16;5.25;;;3.20;;
12493;SDS011;8260;51.422;6.786;2022-10-26T10:47:15;4.70;;;2.75;;
12493;SDS011;8260;51.422;6.786;2022-10-26T10:50:03;6.10;;;2.65;;
12493;SDS011;8260;51.422;6.786;2022-10-26T10:52:35;5.03;;;2.70;;
12493;SDS011;8260;51.422;6.786;2022-10-26T10:55:15;9.35;;;4.32;;
12493;SDS011;8260;51.422;6.786;2022-10-26T10:58:03;5.63;;;3.10;;
12493;SDS011;8260;51.422;6.786;2022-10-26T11:00:38;6.00;;;2.75;;
12493;SDS011;8260;51.422;6.786;2022-10-26T11:06:31;6.68;;;2.75;;
12493;SDS011;8260;51.422;6.786;2022-10-26T11:09:38;5.10;;;2.90;;
12493;SDS011;8260;51.422;6.786;2022-10-26T11:13:06;7.28;;;2.38;;
12493;SDS011;8260;51.422;6.786;2022-10-26T11:16:11;4.35;;;2.50;;
12493;SDS011;8260;51.422;6.786;2022-10-26T11:18:42;4.05;;;2.40;;
12493;SDS011;8260;51.422;6.786;2022-10-26T11:21:14;7.72;;;2.40;;
12493;SDS011;8260;51.422;6.786;2022-10-26T11:24:11;3.85;;;2.22;;
12493;SDS011;8260;51.422;6.786;2022-10-26T11:26:43;7.28;;;2.38;;
12493;SDS011;8260;51.422;6.786;2022-10-26T11:29:45;4.10;;;2.50;;
12493;SDS011;8260;51.422;6.786;2022-10-26T11:32:40;11.43;;;2.83;;
12493;SDS011;8260;51.422;6.786;2022-10-26T11:35:13;7.20;;;2.63;;
12493;SDS011;8260;51.422;6.786;2022-10-26T11:38:00;5.88;;;2.58;;
12493;SDS011;8260;51.422;6.786;2022-10-26T11:40:32;6.00;;;2.78;;
12493;SDS011;8260;51.422;6.786;2022-10-26T11:43:26;10.20;;;3.38;;
12493;SDS011;8260;51.422;6.786;2022-10-26T11:46:20;8.63;;;3.30;;
12493;SDS011;8260;51.422;6.786;2022-10-26T11:49:18;5.95;;;3.00;;
12493;SDS011;8260;51.422;6.786;2022-10-26T11:52:37;6.88;;;2.70;;
12493;SDS011;8260;51.422;6.786;2022-10-26T11:55:09;5.13;;;2.50;;
12493;SDS011;8260;51.422;6.786;2022-10-26T11:57:52;4.78;;;2.17;;
12493;SDS011;8260;51.422;6.786;2022-10-26T12:00:22;6.15;;;2.25;;
12493;SDS011;8260;51.422;6.786;2022-10-26T12:02:54;3.05;;;1.98;;
12493;SDS011;8260;51.422;6.786;2022-10-26T12:05:46;5.05;;;2.08;;
12493;SDS011;8260;51.422;6.786;2022-10-26T12:08:26;4.97;;;2.35;;
12493;SDS011;8260;51.422;6.786;2022-10-26T12:11:12;4.30;;;2.35;;
12493;SDS011;8260;51.422;6.786;2022-10-26T12:14:04;4.85;;;2.45;;
12493;SDS011;8260;51.422;6.786;2022-10-26T12:16:39;3.78;;;2.38;;
12493;SDS011;8260;51.422;6.786;2022-10-26T12:19:13;3.53;;;1.80;;
12493;SDS011;8260;51.422;6.786;2022-10-26T12:21:43;3.05;;;1.90;;
12493;SDS011;8260;51.422;6.786;2022-10-26T12:24:24;7.00;;;2.90;;
12493;SDS011;8260;51.422;6.786;2022-10-26T12:27:25;3.50;;;2.03;;
12493;SDS011;8260;51.422;6.786;2022-10-26T12:30:13;2.53;;;2.30;;
12493;SDS011;8260;51.422;6.786;2022-10-26T12:33:26;4.22;;;2.10;;
12493;SDS011;8260;51.422;6.786;2022-10-26T12:36:00;4.00;;;2.58;;
12493;SDS011;8260;51.422;6.786;2022-10-26T12:41:23;5.75;;;2.40;;
12493;SDS011;8260;51.422;6.786;2022-10-26T12:44:30;5.57;;;2.28;;
12493;SDS011;8260;51.422;6.786;2022-10-26T12:46:59;3.25;;;1.85;;
12493;SDS011;8260;51.422;6.786;2022-10-26T12:52:21;3.53;;;2.10;;
12493;SDS011;8260;51.422;6.786;2022-10-26T12:55:23;2.70;;;1.65;;
12493;SDS011;8260;51.422;6.786;2022-10-26T12:58:26;3.63;;;2.05;;
12493;SDS011;8260;51.422;6.786;2022-10-26T13:07:03;3.58;;;1.90;;
12493;SDS011;8260;51.422;6.786;2022-10-26T13:09:37;3.85;;;2.10;;
12493;SDS011;8260;51.422;6.786;2022-10-26T13:12:22;4.00;;;1.90;;
12493;SDS011;8260;51.422;6.786;2022-10-26T13:14:59;5.13;;;1.75;;
12493;SDS011;8260;51.422;6.786;2022-10-26T13:17:37;5.20;;;2.05;;
12493;SDS011;8260;51.422;6.786;2022-10-26T13:20:20;4.60;;;1.90;;
12493;SDS011;8260;51.422;6.786;2022-10-26T13:22:57;2.35;;;1.52;;
12493;SDS011;8260;51.422;6.786;2022-10-26T13:25:30;5.93;;;1.83;;
12493;SDS011;8260;51.422;6.786;2022-10-26T13:30:56;3.25;;;1.65;;
12493;SDS011;8260;51.422;6.786;2022-10-26T13:33:41;2.53;;;1.95;;
12493;SDS011;8260;51.422;6.786;2022-10-26T13:36:14;4.93;;;2.22;;
12493;SDS011;8260;51.422;6.786;2022-10-26T13:38:44;4.90;;;2.53;;
12493;SDS011;8260;51.422;6.786;2022-10-26T13:41:41;4.10;;;2.33;;
12493;SDS011;8260;51.422;6.786;2022-10-26T13:44:47;3.15;;;2.17;;
12493;SDS011;8260;51.422;6.786;2022-10-26T13:47:35;3.90;;;2.20;;
12493;SDS011;8260;51.422;6.786;2022-10-26T13:50:23;4.40;;;2.13;;
12493;SDS011;8260;51.422;6.786;2022-10-26T13:53:06;3.28;;;2.00;;
12493;SDS011;8260;51.422;6.786;2022-10-26T13:55:38;6.95;;;2.67;;
12493;SDS011;8260;51.422;6.786;2022-10-26T13:58:30;3.70;;;2.15;;
12493;SDS011;8260;51.422;6.786;2022-10-26T14:01:14;4.90;;;1.98;;
12493;SDS011;8260;51.422;6.786;2022-10-26T14:04:14;4.03;;;2.58;;
12493;SDS011;8260;51.422;6.786;2022-10-26T14:06:45;5.85;;;2.70;;
12493;SDS011;8260;51.422;6.786;2022-10-26T14:09:29;6.05;;;3.08;;
12493;SDS011;8260;51.422;6.786;2022-10-26T14:12:26;6.80;;;2.60;;
12493;SDS011;8260;51.422;6.786;2022-10-26T14:14:58;5.70;;;2.60;;
12493;SDS011;8260;51.422;6.786;2022-10-26T14:17:52;3.53;;;2.17;;
12493;SDS011;8260;51.422;6.786;2022-10-26T14:20:22;6.53;;;2.22;;
12493;SDS011;8260;51.422;6.786;2022-10-26T14:22:56;3.28;;;2.10;;
12493;SDS011;8260;51.422;6.786;2022-10-26T14:25:54;3.60;;;2.30;;
12493;SDS011;8260;51.422;6.786;2022-10-26T14:28:25;4.20;;;2.28;;
12493;SDS011;8260;51.422;6.786;2022-10-26T14:31:17;5.10;;;2.25;;
12493;SDS011;8260;51.422;6.786;2022-10-26T14:34:09;4.50;;;2.20;;
12493;SDS011;8260;51.422;6.786;2022-10-26T14:36:47;5.55;;;2.08;;
12493;SDS011;8260;51.422;6.786;2022-10-26T14:39:18;6.05;;;2.45;;
12493;SDS011;8260;51.422;6.786;2022-10-26T14:41:48;4.90;;;1.80;;
12493;SDS011;8260;51.422;6.786;2022-10-26T14:44:31;5.03;;;2.05;;
12493;SDS011;8260;51.422;6.786;2022-10-26T14:47:12;4.93;;;1.80;;
12493;SDS011;8260;51.422;6.786;2022-10-26T14:49:43;2.78;;;1.92;;
12493;SDS011;8260;51.422;6.786;2022-10-26T14:52:26;4.47;;;1.60;;
12493;SDS011;8260;51.422;6.786;2022-10-26T14:54:57;3.75;;;1.90;;
12493;SDS011;8260;51.422;6.786;2022-10-26T14:57:29;6.22;;;1.75;;
12493;SDS011;8260;51.422;6.786;2022-10-26T15:00:16;4.75;;;1.67;;
12493;SDS011;8260;51.422;6.786;2022-10-26T15:02:47;4.40;;;1.67;;
12493;SDS011;8260;51.422;6.786;2022-10-26T15:05:32;3.08;;;1.52;;
12493;SDS011;8260;51.422;6.786;2022-10-26T15:11:13;3.97;;;1.70;;
12493;SDS011;8260;51.422;6.786;2022-10-26T15:13:55;3.13;;;1.70;;
12493;SDS011;8260;51.422;6.786;2022-10-26T15:16:28;3.03;;;1.80;;
12493;SDS011;8260;51.422;6.786;2022-10-26T15:19:14;4.82;;;1.65;;
12493;SDS011;8260;51.422;6.786;2022-10-26T15:21:49;5.25;;;1.90;;
12493;SDS011;8260;51.422;6.786;2022-10-26T15:24:31;3.35;;;1.50;;
12493;SDS011;8260;51.422;6.786;2022-10-26T15:27:14;5.50;;;1.83;;
12493;SDS011;8260;51.422;6.786;2022-10-26T15:29:46;4.38;;;1.55;;
12493;SDS011;8260;51.422;6.786;2022-10-26T15:32:34;4.18;;;1.83;;
12493;SDS011;8260;51.422;6.786;2022-10-26T15:35:26;3.55;;;1.90;;
12493;SDS011;8260;51.422;6.786;2022-10-26T15:37:59;5.85;;;1.92;;
12493;SDS011;8260;51.422;6.786;2022-10-26T15:40:47;3.30;;;1.70;;
12493;SDS011;8260;51.422;6.786;2022-10-26T15:43:50;3.15;;;1.60;;
12493;SDS011;8260;51.422;6.786;2022-10-26T15:46:23;2.58;;;1.48;;
12493;SDS011;8260;51.422;6.786;2022-10-26T15:48:55;1.88;;;1.67;;
12493;SDS011;8260;51.422;6.786;2022-10-26T15:51:59;3.63;;;1.95;;
12493;SDS011;8260;51.422;6.786;2022-10-26T15:54:35;2.42;;;1.67;;
12493;SDS011;8260;51.422;6.786;2022-10-26T15:57:21;3.50;;;1.50;;
12493;SDS011;8260;51.422;6.786;2022-10-26T16:00:13;1.88;;;1.55;;
12493;SDS011;8260;51.422;6.786;2022-10-26T16:02:42;2.83;;;1.80;;
12493;SDS011;8260;51.422;6.786;2022-10-26T16:05:22;4.32;;;1.83;;
12493;SDS011;8260;51.422;6.786;2022-10-26T16:07:52;6.63;;;1.70;;
12493;SDS011;8260;51.422;6.786;2022-10-26T16:10:23;2.50;;;1.80;;
12493;SDS011;8260;51.422;6.786;2022-10-26T16:12:52;5.15;;;1.52;;
12493;SDS011;8260;51.422;6.786;2022-10-26T16:15:35;3.67;;;1.65;;
12493;SDS011;8260;51.422;6.786;2022-10-26T16:18:18;2.55;;;1.70;;
12493;SDS011;8260;51.422;6.786;2022-10-26T16:20:47;2.88;;;1.80;;
12493;SDS011;8260;51.422;6.786;2022-10-26T16:23:16;4.80;;;1.67;;
12493;SDS011;8260;51.422;6.786;2022-10-26T16:25:45;4.80;;;1.77;;
12493;SDS011;8260;51.422;6.786;2022-10-26T16:28:22;2.90;;;1.75;;
12493;SDS011;8260;51.422;6.786;2022-10-26T16:30:51;3.63;;;1.98;;
12493;SDS011;8260;51.422;6.786;2022-10-26T16:33:30;3.22;;;1.50;;
12493;SDS011;8260;51.422;6.786;2022-10-26T16:36:01;5.47;;;1.67;;
12493;SDS011;8260;51.422;6.786;2022-10-26T16:38:48;3.38;;;2.30;;